Time;durP1;ratioP1;P1;durP2;ratioP2;P2;SDS_P1;SDS_P2;PMS_P1;PMS_P2;Temp;Humidity;BMP_temperature;BMP_pressure;BME280_temperature;BME280_humidity;BME280_pressure;Samples;Min_cycle;Max_cycle;Signal;HPM_P1;HPM_P2
2023/12/03 00:02:23;;;;;;;22.85;10.93;;;;;;;-3.02;100.00;97739.59;5128688;27;20392;-76
2023/12/03 00:04:51;;;;;;;18.05;10.25;;;;;;;-3.05;100.00;97739.88;5112370;28;20476;-76
2023/12/03 00:07:19;;;;;;;20.10;11.00;;;;;;;-3.08;100.00;97735.00;5112513;28;20480;-76
2023/12/03 00:09:46;;;;;;;24.48;11.98;;;;;;;-3.09;100.00;97730.84;5112406;28;20384;-76
2023/12/03 00:12:12;;;;;;;23.00;11.33;;;;;;;-3.11;100.00;97735.34;5093844;28;20469;-77
2023/12/03 00:14:38;;;;;;;22.10;10.98;;;;;;;-3.16;100.00;97733.22;5112106;28;20388;-76
2023/12/03 00:17:05;;;;;;;17.50;9.93;;;;;;;-3.19;100.00;97737.91;5111870;28;20401;-76
2023/12/03 00:19:31;;;;;;;29.58;14.82;;;;;;;-3.17;100.00;97730.81;5111874;28;20471;-76
2023/12/03 00:21:57;;;;;;;33.58;14.32;;;;;;;-3.18;100.00;97742.13;5111821;28;20395;-76
2023/12/03 00:24:25;;;;;;;29.67;13.98;;;;;;;-3.21;100.00;97740.63;5111609;28;20959;-76
2023/12/03 00:26:51;;;;;;;22.77;11.05;;;;;;;-3.18;100.00;97739.53;5111522;28;20465;-76
2023/12/03 00:29:17;;;;;;;24.15;11.57;;;;;;;-3.16;100.00;97748.75;5111452;28;20396;-76
2023/12/03 00:31:43;;;;;;;20.07;10.27;;;;;;;-3.14;100.00;97746.81;5111939;28;20514;-76
2023/12/03 00:34:10;;;;;;;27.77;13.13;;;;;;;-3.12;100.00;97752.66;5111909;28;20400;-76
2023/12/03 00:36:36;;;;;;;22.77;11.45;;;;;;;-3.10;100.00;97757.69;5111953;28;20395;-75
2023/12/03 00:39:03;;;;;;;26.65;13.48;;;;;;;-3.13;100.00;97747.63;5111591;28;20426;-76
2023/12/03 00:41:30;;;;;;;26.05;12.45;;;;;;;-3.18;100.00;97749.88;5111562;28;20388;-76
2023/12/03 00:43:57;;;;;;;22.17;10.10;;;;;;;-3.26;100.00;97749.84;5111045;28;20388;-76
2023/12/03 00:46:23;;;;;;;20.63;10.10;;;;;;;-3.29;100.00;97758.72;5111717;28;20393;-76
2023/12/03 00:48:49;;;;;;;21.15;10.52;;;;;;;-3.27;100.00;97758.56;5111576;28;20384;-76
2023/12/03 00:51:15;;;;;;;24.13;11.60;;;;;;;-3.27;100.00;97753.41;5111389;28;20435;-76
2023/12/03 00:53:42;;;;;;;19.67;10.02;;;;;;;-3.27;100.00;97754.22;5111477;28;20388;-76
2023/12/03 00:56:09;;;;;;;20.05;10.00;;;;;;;-3.28;100.00;97756.94;5112595;28;20588;-76
2023/12/03 00:58:36;;;;;;;16.90;10.35;;;;;;;-3.29;100.00;97761.31;5115149;28;20399;-76
2023/12/03 01:01:03;;;;;;;16.48;8.35;;;;;;;-3.25;100.00;97759.25;5115537;28;20384;-76
2023/12/03 01:03:30;;;;;;;13.87;7.97;;;;;;;-3.19;100.00;97764.59;5115284;28;20427;-76
2023/12/03 01:05:56;;;;;;;14.23;8.18;;;;;;;-3.13;100.00;97771.75;5115615;28;20424;-76
2023/12/03 01:08:22;;;;;;;16.55;9.10;;;;;;;-3.08;100.00;97778.25;5115349;28;20706;-76
2023/12/03 01:10:48;;;;;;;16.95;8.52;;;;;;;-3.03;100.00;97781.16;5115004;28;20480;-76
2023/12/03 01:13:14;;;;;;;14.93;7.78;;;;;;;-3.08;100.00;97781.63;5115332;28;20499;-77
2023/12/03 01:15:45;;;;;;;16.88;9.18;;;;;;;-3.12;100.00;97781.13;5115271;28;20441;-76
2023/12/03 01:18:11;;;;;;;17.45;9.73;;;;;;;-3.16;100.00;97787.56;5115264;28;20407;-76
2023/12/03 01:20:38;;;;;;;15.48;8.32;;;;;;;-3.20;100.00;97783.69;5115008;28;20868;-76
2023/12/03 01:23:04;;;;;;;18.95;9.30;;;;;;;-3.23;100.00;97783.16;5115181;28;20392;-76
2023/12/03 01:25:30;;;;;;;16.67;9.03;;;;;;;-3.28;100.00;97788.81;5114780;28;20408;-76
2023/12/03 01:27:57;;;;;;;20.23;8.98;;;;;;;-3.29;100.00;97794.16;5115123;28;20878;-76
2023/12/03 01:30:23;;;;;;;31.17;14.00;;;;;;;-3.25;100.00;97804.06;5114956;28;20419;-76
2023/12/03 01:32:50;;;;;;;28.58;12.70;;;;;;;-3.30;100.00;97808.06;5114974;28;20392;-76
2023/12/03 01:35:17;;;;;;;26.35;12.82;;;;;;;-3.33;100.00;97811.78;5115315;28;20414;-76
2023/12/03 01:37:43;;;;;;;25.37;12.60;;;;;;;-3.36;100.00;97808.66;5114817;28;20463;-76
2023/12/03 01:40:10;;;;;;;26.37;11.73;;;;;;;-3.39;100.00;97812.41;5114562;28;20906;-76
2023/12/03 01:42:36;;;;;;;25.42;11.48;;;;;;;-3.41;100.00;97811.72;5114919;28;20395;-77
2023/12/03 01:45:03;;;;;;;21.50;10.50;;;;;;;-3.40;100.00;97813.34;5114574;28;20466;-76
2023/12/03 01:47:30;;;;;;;25.70;12.60;;;;;;;-3.36;100.00;97813.84;5114976;28;20400;-76
2023/12/03 01:50:03;;;;;;;33.42;15.15;;;;;;;-3.34;100.00;97819.69;5114764;28;20435;-76
2023/12/03 01:52:30;;;;;;;27.75;13.32;;;;;;;-3.35;100.00;97826.63;5114590;28;20387;-76
2023/12/03 01:54:57;;;;;;;28.52;13.45;;;;;;;-3.34;100.00;97830.84;5114519;28;20392;-76
2023/12/03 01:57:24;;;;;;;26.85;12.43;;;;;;;-3.33;100.00;97837.66;5114388;28;20473;-77
2023/12/03 01:59:50;;;;;;;27.75;13.40;;;;;;;-3.33;100.00;97832.47;5114283;28;20784;-76
2023/12/03 02:02:16;;;;;;;26.75;12.60;;;;;;;-3.37;100.00;97831.16;5111163;28;20870;-76
2023/12/03 02:04:42;;;;;;;25.25;11.63;;;;;;;-3.37;100.00;97833.72;5093762;28;20397;-77
2023/12/03 02:07:10;;;;;;;27.60;12.60;;;;;;;-3.33;100.00;97835.06;5093390;28;20401;-76
2023/12/03 02:09:37;;;;;;;32.00;14.23;;;;;;;-3.28;100.00;97839.78;5093357;28;20935;-76
2023/12/03 02:12:05;;;;;;;30.83;13.45;;;;;;;-3.26;100.00;97832.69;5093920;28;20898;-76
2023/12/03 02:14:31;;;;;;;39.30;16.85;;;;;;;-3.25;100.00;97834.31;5093480;28;20866;-76
2023/12/03 02:16:57;;;;;;;48.90;19.38;;;;;;;-3.28;100.00;97829.41;5093557;28;20398;-76
2023/12/03 02:19:23;;;;;;;45.72;18.92;;;;;;;-3.29;100.00;97836.38;5093704;28;20444;-76
2023/12/03 02:21:49;;;;;;;49.55;19.70;;;;;;;-3.31;100.00;97835.75;5093457;28;20397;-76
2023/12/03 02:24:17;;;;;;;50.72;19.70;;;;;;;-3.30;100.00;97833.94;5097594;28;20386;-76
2023/12/03 02:26:43;;;;;;;41.75;16.98;;;;;;;-3.28;100.00;97839.78;5094021;28;20394;-76
2023/12/03 02:29:09;;;;;;;31.90;15.05;;;;;;;-3.27;100.00;97831.88;5093460;28;20386;-76
2023/12/03 02:31:35;;;;;;;34.88;15.02;;;;;;;-3.25;100.00;97835.13;5093333;28;20497;-76
2023/12/03 02:34:06;;;;;;;30.50;13.80;;;;;;;-3.22;100.00;97837.38;5093641;28;20389;-76
2023/12/03 02:36:33;;;;;;;26.35;12.85;;;;;;;-3.22;100.00;97837.38;5093239;28;20451;-76
2023/12/03 02:38:59;;;;;;;30.48;13.60;;;;;;;-3.21;100.00;97838.19;5093406;28;20391;-76
2023/12/03 02:41:26;;;;;;;41.38;16.55;;;;;;;-3.23;100.00;97838.34;5093202;28;20394;-76
2023/12/03 02:43:52;;;;;;;43.03;16.58;;;;;;;-3.24;100.00;97841.94;5092758;28;20402;-76
2023/12/03 02:46:19;;;;;;;29.52;13.20;;;;;;;-3.24;100.00;97847.09;5093063;28;20405;-76
2023/12/03 02:48:45;;;;;;;32.10;15.37;;;;;;;-3.22;100.00;97844.34;5092903;28;20481;-76
2023/12/03 02:51:11;;;;;;;28.80;13.82;;;;;;;-3.28;100.00;97845.75;5092930;28;20894;-76
2023/12/03 02:53:37;;;;;;;26.48;12.95;;;;;;;-3.31;100.00;97845.28;5075088;28;20398;-76
2023/12/03 02:56:04;;;;;;;27.73;11.60;;;;;;;-3.35;100.00;97843.94;5092715;28;20396;-76
2023/12/03 02:58:32;;;;;;;32.23;13.43;;;;;;;-3.32;100.00;97844.47;5092620;28;20926;-76
2023/12/03 03:00:59;;;;;;;26.52;12.43;;;;;;;-3.29;100.00;97853.69;5092832;28;20469;-76
2023/12/03 03:03:25;;;;;;;30.58;13.27;;;;;;;-3.27;100.00;97852.56;5105347;28;20446;-76
2023/12/03 03:05:51;;;;;;;25.00;11.73;;;;;;;-3.25;100.00;97845.47;5113338;28;20445;-76
2023/12/03 03:08:17;;;;;;;33.45;13.13;;;;;;;-3.22;100.00;97855.50;5113012;28;20748;-76
2023/12/03 03:10:43;;;;;;;26.70;12.48;;;;;;;-3.21;100.00;97848.56;5113069;28;20420;-77
2023/12/03 03:13:09;;;;;;;25.80;11.68;;;;;;;-3.19;100.00;97854.41;5113370;28;20392;-76
2023/12/03 03:15:37;;;;;;;23.48;10.70;;;;;;;-3.20;100.00;97856.16;5113144;28;20396;-77
2023/12/03 03:18:03;;;;;;;21.05;10.35;;;;;;;-3.18;100.00;97861.19;5112962;28;20429;-77
2023/12/03 03:20:30;;;;;;;19.95;9.48;;;;;;;-3.17;100.00;97860.25;5113154;28;20392;-78
2023/12/03 03:22:56;;;;;;;19.45;9.15;;;;;;;-3.17;100.00;97858.47;5114923;28;20466;-77
2023/12/03 03:25:22;;;;;;;25.25;10.98;;;;;;;-3.19;100.00;97862.97;5114161;28;20385;-77
2023/12/03 03:27:48;;;;;;;24.40;11.90;;;;;;;-3.21;100.00;97864.09;5114459;28;20384;-77
2023/12/03 03:30:15;;;;;;;31.40;13.27;;;;;;;-3.22;100.00;97855.50;5114234;28;20484;-77
2023/12/03 03:32:42;;;;;;;27.02;12.77;;;;;;;-3.22;100.00;97854.69;5114397;28;20426;-77
2023/12/03 03:35:09;;;;;;;24.60;11.10;;;;;;;-3.21;100.00;97859.72;5114521;28;20393;-77
2023/12/03 03:37:35;;;;;;;22.05;11.07;;;;;;;-3.24;100.00;97861.81;5114291;28;20758;-77
2023/12/03 03:40:01;;;;;;;17.77;8.55;;;;;;;-3.26;100.00;97861.16;5113977;28;20414;-77
2023/12/03 03:42:28;;;;;;;20.88;10.90;;;;;;;-3.26;100.00;97864.56;5113455;28;20475;-77
2023/12/03 03:44:54;;;;;;;27.00;11.70;;;;;;;-3.25;100.00;97860.19;5112667;28;20404;-78
2023/12/03 03:47:20;;;;;;;29.25;12.88;;;;;;;-3.29;100.00;97867.44;5112311;28;20449;-77
2023/12/03 03:49:48;;;;;;;25.85;11.65;;;;;;;-3.30;100.00;97865.81;5112416;28;20423;-77
2023/12/03 03:52:14;;;;;;;27.00;10.87;;;;;;;-3.27;100.00;97868.09;5112527;28;20457;-77
2023/12/03 03:54:43;;;;;;;21.73;9.90;;;;;;;-3.26;100.00;97874.09;5112660;28;20391;-77
2023/12/03 03:57:09;;;;;;;23.38;10.93;;;;;;;-3.29;100.00;97872.63;5112308;28;20389;-77
2023/12/03 03:59:35;;;;;;;27.13;11.52;;;;;;;-3.29;100.00;97869.22;5111992;28;20419;-77
2023/12/03 04:02:02;;;;;;;20.73;9.98;;;;;;;-3.27;100.00;97877.66;5110998;28;20426;-77
2023/12/03 04:04:28;;;;;;;20.17;9.70;;;;;;;-3.27;100.00;97867.28;5091811;28;20489;-77
2023/12/03 04:06:55;;;;;;;23.85;11.65;;;;;;;-3.29;100.00;97862.25;5092115;28;20488;-77
2023/12/03 04:09:21;;;;;;;25.42;11.30;;;;;;;-3.29;100.00;97862.25;5092017;28;20443;-77
2023/12/03 04:11:48;;;;;;;18.45;8.98;;;;;;;-3.30;100.00;97865.81;5091619;28;20421;-77
2023/12/03 04:14:15;;;;;;;21.30;10.57;;;;;;;-3.32;100.00;97864.34;5091228;28;20398;-76
2023/12/03 04:16:42;;;;;;;19.88;10.18;;;;;;;-3.35;100.00;97859.47;5091617;28;20401;-77
2023/12/03 04:19:08;;;;;;;20.25;9.52;;;;;;;-3.39;100.00;97860.75;5091835;28;20398;-76
2023/12/03 04:21:36;;;;;;;21.92;10.77;;;;;;;-3.43;100.00;97865.41;5092462;28;20402;-76
2023/12/03 04:24:04;;;;;;;33.88;14.18;;;;;;;-3.51;100.00;97865.34;5091481;28;20397;-76
2023/12/03 04:26:30;;;;;;;27.35;12.75;;;;;;;-3.57;100.00;97871.94;5091208;28;20415;-76
2023/12/03 04:28:56;;;;;;;26.30;11.63;;;;;;;-3.62;100.00;97883.72;5090943;28;20398;-76
2023/12/03 04:31:27;;;;;;;21.30;10.60;;;;;;;-3.75;100.00;97881.47;5090764;28;20398;-76
2023/12/03 04:33:55;;;;;;;20.77;10.47;;;;;;;-3.82;100.00;97877.88;5091252;28;20432;-76
2023/12/03 04:36:27;;;;;;;19.33;9.63;;;;;;;-3.90;100.00;97872.63;5091656;28;20426;-76
2023/12/03 04:38:53;;;;;;;25.73;12.05;;;;;;;-3.90;100.00;97881.19;5091366;28;20390;-76
2023/12/03 04:41:21;;;;;;;21.90;10.48;;;;;;;-3.99;100.00;97878.69;5091083;28;20489;-76
2023/12/03 04:43:48;;;;;;;29.77;13.40;;;;;;;-4.00;100.00;97883.06;5091200;28;20459;-76
2023/12/03 04:46:14;;;;;;;25.88;11.90;;;;;;;-4.08;100.00;97882.16;5091451;28;20413;-76
2023/12/03 04:48:41;;;;;;;28.73;12.80;;;;;;;-4.14;100.00;97875.00;5091502;28;20408;-76
2023/12/03 04:51:10;;;;;;;30.42;12.80;;;;;;;-4.17;100.00;97883.84;5095880;28;20406;-76
2023/12/03 04:53:36;;;;;;;27.77;12.25;;;;;;;-4.20;100.00;97891.06;5091327;28;20390;-76
2023/12/03 04:56:03;;;;;;;25.27;11.75;;;;;;;-4.25;100.00;97888.94;5091106;28;20389;-76
2023/12/03 04:58:30;;;;;;;26.23;11.63;;;;;;;-4.28;100.00;97883.25;5091321;28;20431;-76
2023/12/03 05:00:56;;;;;;;30.98;13.30;;;;;;;-4.34;100.00;97885.44;5091360;28;20808;-76
2023/12/03 05:03:22;;;;;;;28.77;12.52;;;;;;;-4.38;100.00;97888.47;5103587;28;20389;-76
2023/12/03 05:05:48;;;;;;;27.42;12.10;;;;;;;-4.42;100.00;97893.09;5111648;28;20400;-76
2023/12/03 05:08:15;;;;;;;25.20;10.60;;;;;;;-4.45;100.00;97895.19;5111384;28;20395;-76
2023/12/03 05:10:41;;;;;;;20.00;9.90;;;;;;;-4.46;100.00;97896.13;5111628;28;20440;-76
2023/12/03 05:13:07;;;;;;;17.08;8.65;;;;;;;-4.52;100.00;97894.94;5111591;28;20392;-76
2023/12/03 05:15:35;;;;;;;15.30;7.35;;;;;;;-4.54;100.00;97902.03;5111483;28;20891;-76
2023/12/03 05:18:01;;;;;;;13.70;7.32;;;;;;;-4.53;100.00;97898.50;5111610;28;20385;-76
2023/12/03 05:20:27;;;;;;;14.40;7.15;;;;;;;-4.57;100.00;97904.06;5111260;28;20388;-76
2023/12/03 05:22:53;;;;;;;13.50;7.25;;;;;;;-4.58;100.00;97900.66;5111101;28;20778;-76
2023/12/03 05:25:19;;;;;;;12.63;6.40;;;;;;;-4.58;100.00;97897.28;5112254;28;20863;-76
2023/12/03 05:27:46;;;;;;;11.37;6.37;;;;;;;-4.62;100.00;97904.50;5111569;28;20490;-76
2023/12/03 05:30:14;;;;;;;12.85;7.43;;;;;;;-4.68;100.00;97908.47;5111337;28;20396;-76
2023/12/03 05:32:42;;;;;;;13.98;7.10;;;;;;;-4.69;100.00;97913.78;5111168;28;20507;-76
2023/12/03 05:35:09;;;;;;;11.27;6.32;;;;;;;-4.68;100.00;97911.06;5111165;28;20396;-76
2023/12/03 05:37:35;;;;;;;11.38;5.68;;;;;;;-4.70;100.00;97907.00;5110812;28;20831;-76
2023/12/03 05:40:02;;;;;;;10.07;5.97;;;;;;;-4.74;100.00;97906.47;5111116;28;20860;-76
2023/12/03 05:42:28;;;;;;;10.18;5.38;;;;;;;-4.73;100.00;97912.44;5110162;28;20484;-76
2023/12/03 05:44:55;;;;;;;8.85;5.05;;;;;;;-4.74;100.00;97916.81;5114527;28;20433;-76
2023/12/03 05:47:22;;;;;;;9.85;5.18;;;;;;;-4.76;100.00;97916.13;5114525;28;20400;-76
2023/12/03 05:49:49;;;;;;;6.78;4.55;;;;;;;-4.76;100.00;97928.22;5114234;28;20444;-76
2023/12/03 05:52:16;;;;;;;6.50;4.10;;;;;;;-4.77;100.00;97922.25;5113948;28;20419;-76
2023/12/03 05:54:42;;;;;;;6.10;4.07;;;;;;;-4.93;100.00;97923.78;5114320;28;20416;-76
2023/12/03 05:57:08;;;;;;;10.52;5.57;;;;;;;-4.92;100.00;97933.97;5114881;27;20491;-76
2023/12/03 05:59:34;;;;;;;7.72;5.00;;;;;;;-5.17;100.00;97917.31;5124765;27;20413;-76
2023/12/03 06:02:01;;;;;;;9.13;4.72;;;;;;;-5.22;100.00;97919.53;5115599;27;20407;-78
2023/12/03 06:04:27;;;;;;;8.02;4.82;;;;;;;-5.27;100.00;97908.00;5114301;28;20392;-77
2023/12/03 06:06:58;;;;;;;7.68;4.95;;;;;;;-5.29;100.00;97904.72;5116040;28;20404;-81
2023/12/03 06:09:24;;;;;;;7.57;4.57;;;;;;;-5.30;100.00;97906.50;5111825;27;20431;-78
2023/12/03 06:11:50;;;;;;;6.15;4.43;;;;;;;-5.34;100.00;97912.09;5119462;27;20408;-77
2023/12/03 06:14:17;;;;;;;6.88;4.10;;;;;;;-5.36;100.00;97916.56;5126295;27;20392;-80
2023/12/03 06:16:43;;;;;;;5.80;4.05;;;;;;;-5.38;100.00;97913.28;5128825;27;20387;-80
2023/12/03 06:19:09;;;;;;;8.18;4.45;;;;;;;-5.39;100.00;97915.06;5128397;27;20395;-79
2023/12/03 06:21:35;;;;;;;6.68;4.10;;;;;;;-5.40;100.00;97903.09;5126013;27;20414;-79
2023/12/03 06:24:03;;;;;;;6.03;4.03;;;;;;;-5.41;100.00;97911.78;5123850;27;20388;-78
2023/12/03 06:26:29;;;;;;;4.88;3.50;;;;;;;-5.43;100.00;97918.06;5121436;27;20396;-78
2023/12/03 06:28:55;;;;;;;7.90;4.20;;;;;;;-5.46;100.00;97912.22;5117745;27;20396;-78
2023/12/03 06:31:21;;;;;;;4.90;3.63;;;;;;;-5.46;100.00;97919.16;5113125;27;20434;-78
2023/12/03 06:33:47;;;;;;;4.57;3.83;;;;;;;-5.47;100.00;97913.16;5119990;27;20392;-80
2023/12/03 06:36:14;;;;;;;5.80;4.07;;;;;;;-5.47;100.00;97925.25;5119521;28;20397;-81
2023/12/03 06:38:40;;;;;;;5.47;3.30;;;;;;;-5.49;100.00;97922.00;5133828;27;20412;-80
2023/12/03 06:41:08;;;;;;;5.43;3.65;;;;;;;-5.50;100.00;97925.53;5131091;27;20401;-80
2023/12/03 06:43:34;;;;;;;4.30;3.40;;;;;;;-5.52;100.00;97933.41;5140495;27;20529;-83
2023/12/03 06:46:02;;;;;;;5.27;3.63;;;;;;;-5.52;100.00;97932.59;5137859;27;20414;-84
2023/12/03 06:48:32;;;;;;;5.00;3.50;;;;;;;-5.53;100.00;97930.97;5133097;27;20394;-84
2023/12/03 06:51:01;;;;;;;4.35;3.28;;;;;;;-5.55;100.00;97938.00;5128965;27;20410;-83
2023/12/03 06:53:27;;;;;;;10.90;4.80;;;;;;;-5.56;100.00;97937.19;5124830;27;20402;-77
2023/12/03 06:55:56;;;;;;;9.38;5.00;;;;;;;-5.55;100.00;97941.41;5125873;27;20403;-77
2023/12/03 06:58:26;;;;;;;7.40;4.43;;;;;;;-5.56;100.00;97934.63;5134682;27;20420;-79
2023/12/03 07:00:53;;;;;;;6.25;4.30;;;;;;;-5.56;100.00;97939.78;5138339;27;20445;-80
2023/12/03 07:03:19;;;;;;;6.93;4.18;;;;;;;-5.56;100.00;97942.34;5132914;27;20430;-78
2023/12/03 07:05:45;;;;;;;5.82;4.15;;;;;;;-5.58;100.00;97944.28;5116083;27;20409;-77
2023/12/03 07:08:11;;;;;;;5.80;4.03;;;;;;;-5.56;100.00;97946.69;5108328;27;20403;-78
2023/12/03 07:10:38;;;;;;;5.68;3.72;;;;;;;-5.56;100.00;97946.69;5123752;27;20400;-77
2023/12/03 07:13:04;;;;;;;5.32;3.63;;;;;;;-5.55;100.00;97950.91;5121868;27;20791;-80
2023/12/03 07:15:32;;;;;;;6.22;4.22;;;;;;;-5.52;100.00;97950.66;5126797;27;20393;-80
2023/12/03 07:17:58;;;;;;;6.28;3.83;;;;;;;-5.51;100.00;97949.69;5109353;28;20400;-77
2023/12/03 07:20:25;;;;;;;5.38;3.42;;;;;;;-5.51;100.00;97960.00;5128545;27;20704;-78
2023/12/03 07:22:51;;;;;;;7.28;4.25;;;;;;;-5.49;100.00;97960.69;5125323;27;20440;-79
2023/12/03 07:25:17;;;;;;;5.15;3.30;;;;;;;-5.48;100.00;97957.16;5123511;27;20394;-78
2023/12/03 07:27:44;;;;;;;4.97;3.30;;;;;;;-5.46;100.00;97963.00;5119764;27;20408;-78
2023/12/03 07:30:11;;;;;;;5.65;3.40;;;;;;;-5.44;100.00;97961.09;5118295;27;20386;-77
2023/12/03 07:32:39;;;;;;;4.18;3.50;;;;;;;-5.42;100.00;97969.53;5126655;27;20414;-77
2023/12/03 07:35:06;;;;;;;6.38;3.72;;;;;;;-5.41;100.00;97955.66;5126365;27;20724;-77
2023/12/03 07:37:32;;;;;;;5.22;3.42;;;;;;;-5.38;100.00;97964.88;5127492;27;20396;-78
2023/12/03 07:39:58;;;;;;;5.70;3.60;;;;;;;-5.38;100.00;97959.72;5116781;27;20981;-78
2023/12/03 07:42:25;;;;;;;4.35;3.10;;;;;;;-5.38;100.00;97965.72;5120726;27;20414;-78
2023/12/03 07:44:51;;;;;;;5.28;3.20;;;;;;;-5.37;100.00;97967.34;5120505;27;20396;-78
2023/12/03 07:47:18;;;;;;;4.88;3.70;;;;;;;-5.36;100.00;97978.47;5113154;27;20470;-78
2023/12/03 07:49:45;;;;;;;4.90;3.22;;;;;;;-5.34;100.00;97979.97;5121222;27;20426;-78
2023/12/03 07:52:11;;;;;;;5.32;3.72;;;;;;;-5.31;100.00;97982.25;5117534;27;20499;-78
2023/12/03 07:54:40;;;;;;;5.97;3.70;;;;;;;-5.28;100.00;97986.34;5118095;27;20396;-79
2023/12/03 07:57:06;;;;;;;5.45;3.88;;;;;;;-5.24;100.00;97985.09;5118490;27;20446;-78
2023/12/03 07:59:32;;;;;;;5.82;3.88;;;;;;;-5.21;100.00;97997.75;5115011;27;20446;-78
2023/12/03 08:01:58;;;;;;;8.68;4.32;;;;;;;-5.20;100.00;97989.88;5118971;27;20880;-79
2023/12/03 08:04:25;;;;;;;7.07;4.25;;;;;;;-5.18;100.00;97994.88;5117453;27;20400;-81
2023/12/03 08:06:52;;;;;;;7.43;4.50;;;;;;;-5.18;100.00;97985.38;5119570;27;20856;-81
2023/12/03 08:09:18;;;;;;;6.72;3.88;;;;;;;-5.15;100.00;97986.88;5121542;28;20425;-80
2023/12/03 08:11:44;;;;;;;9.90;4.80;;;;;;;-5.13;100.00;97980.63;5129981;27;20479;-81
2023/12/03 08:14:10;;;;;;;7.95;4.72;;;;;;;-5.09;100.00;97986.31;5122499;27;20467;-80
2023/12/03 08:16:37;;;;;;;8.52;4.80;;;;;;;-5.08;100.00;97993.91;5127108;28;20392;-80
2023/12/03 08:19:03;;;;;;;7.72;4.63;;;;;;;-5.05;100.00;97990.25;5119791;28;20392;-80
2023/12/03 08:21:31;;;;;;;8.32;4.88;;;;;;;-5.03;100.00;97988.34;5120938;28;20388;-80
2023/12/03 08:23:59;;;;;;;10.23;5.50;;;;;;;-4.99;100.00;97986.31;5120120;28;20454;-79
2023/12/03 08:26:25;;;;;;;7.80;4.95;;;;;;;-4.98;100.00;97995.69;5120092;28;20393;-81
2023/12/03 08:28:51;;;;;;;6.95;4.72;;;;;;;-4.95;100.00;97993.63;5114620;28;20399;-78
2023/12/03 08:31:17;;;;;;;7.25;4.85;;;;;;;-4.93;100.00;97996.06;5114905;28;20408;-78
2023/12/03 08:33:44;;;;;;;8.48;5.10;;;;;;;-4.90;100.00;97999.19;5114239;28;20400;-78
2023/12/03 08:36:17;;;;;;;7.35;4.38;;;;;;;-4.87;100.00;98004.06;5117638;28;20400;-78
2023/12/03 08:38:44;;;;;;;7.47;4.43;;;;;;;-4.85;100.00;98007.34;5128198;28;20391;-79
2023/12/03 08:41:11;;;;;;;5.97;3.97;;;;;;;-4.81;100.00;98002.72;5114705;28;20412;-81
2023/12/03 08:43:37;;;;;;;6.70;4.45;;;;;;;-4.79;100.00;97993.03;5117613;28;20760;-80
2023/12/03 08:46:04;;;;;;;6.43;4.05;;;;;;;-4.76;100.00;97997.94;5099874;28;20444;-79
2023/12/03 08:48:30;;;;;;;8.52;5.20;;;;;;;-4.72;100.00;98007.03;5116048;28;20388;-78
2023/12/03 08:50:56;;;;;;;8.57;4.65;;;;;;;-4.71;100.00;97998.31;5115097;28;20420;-79
2023/12/03 08:53:22;;;;;;;7.07;4.30;;;;;;;-4.68;100.00;97996.28;5112360;28;20394;-78
2023/12/03 08:55:48;;;;;;;7.22;4.75;;;;;;;-4.64;100.00;98008.91;5116680;28;20396;-79
2023/12/03 08:58:16;;;;;;;8.57;4.95;;;;;;;-4.59;100.00;98004.16;5119250;28;20387;-80
2023/12/03 09:00:42;;;;;;;8.27;5.20;;;;;;;-4.58;100.00;98009.16;5120368;28;20487;-79
2023/12/03 09:03:08;;;;;;;9.15;5.15;;;;;;;-4.54;100.00;98017.44;5111151;28;20388;-79
2023/12/03 09:05:34;;;;;;;8.98;4.93;;;;;;;-4.50;100.00;98021.38;5108525;28;20410;-78
2023/12/03 09:08:01;;;;;;;8.20;4.88;;;;;;;-4.44;100.00;98019.06;5104068;28;20396;-79
2023/12/03 09:10:27;;;;;;;8.30;4.85;;;;;;;-4.38;100.00;98025.44;5109861;28;20399;-79
2023/12/03 09:12:53;;;;;;;10.65;5.15;;;;;;;-4.34;100.00;98025.00;5103302;28;20423;-79
2023/12/03 09:15:20;;;;;;;8.70;5.13;;;;;;;-4.29;100.00;98024.56;5109016;28;20449;-78
2023/12/03 09:17:47;;;;;;;8.40;5.32;;;;;;;-4.23;100.00;98016.25;5103960;27;20398;-79
2023/12/03 09:20:13;;;;;;;7.93;4.90;;;;;;;-4.18;100.00;98014.03;5104696;27;20392;-78
2023/12/03 09:22:39;;;;;;;10.07;5.15;;;;;;;-4.13;100.00;98008.44;5110159;27;20394;-78
2023/12/03 09:25:06;;;;;;;8.50;4.85;;;;;;;-4.08;100.00;98011.41;5110770;27;20428;-78
2023/12/03 09:27:33;;;;;;;8.17;5.20;;;;;;;-4.03;100.00;97998.88;5113005;27;20461;-77
2023/12/03 09:29:59;;;;;;;7.35;4.50;;;;;;;-3.98;100.00;97997.47;5115632;27;20888;-77
2023/12/03 09:32:27;;;;;;;8.10;4.88;;;;;;;-3.92;100.00;97994.31;5113497;28;20426;-79
2023/12/03 09:34:53;;;;;;;8.65;5.47;;;;;;;-3.86;100.00;97998.09;5114469;27;20408;-77
2023/12/03 09:37:19;;;;;;;9.00;4.70;;;;;;;-3.80;100.00;97991.53;5117263;28;20396;-79
2023/12/03 09:39:45;;;;;;;9.60;5.37;;;;;;;-3.71;100.00;97990.66;5116486;28;20413;-78
2023/12/03 09:42:16;;;;;;;15.05;6.82;;;;;;;-3.45;100.00;97993.31;5127080;28;20404;-78
2023/12/03 09:44:50;;;;;;;17.65;6.97;;;;;;;-2.93;100.00;98002.78;5118569;28;20393;-77
2023/12/03 09:47:21;;;;;;;21.98;6.72;;;;;;;-2.25;100.00;98004.66;5117332;28;20385;-77
2023/12/03 09:49:53;;;;;;;15.40;6.40;;;;;;;-1.56;100.00;98007.00;5116069;28;20381;-77
2023/12/03 09:52:23;;;;;;;13.90;6.37;;;;;;;-0.96;100.00;98009.31;5116209;28;20488;-77
2023/12/03 09:54:51;;;;;;;15.63;7.20;;;;;;;-0.43;100.00;98006.16;5109751;28;20441;-77
2023/12/03 09:57:18;;;;;;;16.77;8.23;;;;;;;0.03;100.00;98008.94;5109662;28;20437;-80
2023/12/03 09:59:47;;;;;;;17.33;8.80;;;;;;;0.38;100.00;97998.84;5114385;28;20901;-79
2023/12/03 10:02:15;;;;;;;11.80;6.55;;;;;;;0.75;100.00;97998.13;5119381;28;20400;-77
2023/12/03 10:04:41;;;;;;;10.55;6.30;;;;;;;1.15;100.00;97998.78;5114184;28;20437;-76
2023/12/03 10:07:09;;;;;;;8.95;6.32;;;;;;;1.47;100.00;97997.69;5114311;28;20420;-76
2023/12/03 10:09:38;;;;;;;4.78;3.90;;;;;;;1.77;100.00;97998.50;5114368;28;20411;-77
2023/12/03 10:12:09;;;;;;;3.93;3.37;;;;;;;2.12;100.00;97994.34;5094281;28;20777;-77
2023/12/03 10:14:36;;;;;;;3.80;3.30;;;;;;;2.37;100.00;97992.22;5107735;27;20390;-77
2023/12/03 10:17:03;;;;;;;2.90;2.60;;;;;;;2.56;100.00;97989.00;5105437;28;20392;-76
2023/12/03 10:19:29;;;;;;;2.92;2.65;;;;;;;2.75;100.00;97996.25;5112632;27;20393;-78
2023/12/03 10:21:57;;;;;;;2.60;2.40;;;;;;;2.92;100.00;97987.16;5116866;28;20439;-78
2023/12/03 10:24:25;;;;;;;2.30;2.10;;;;;;;3.09;100.00;97987.69;5116100;28;20404;-78
2023/12/03 10:26:53;;;;;;;2.53;2.33;;;;;;;3.31;100.00;97991.09;5112684;28;20507;-78
2023/12/03 10:29:19;;;;;;;2.13;1.92;;;;;;;3.49;100.00;97988.81;5100190;28;20381;-80
2023/12/03 10:31:46;;;;;;;2.00;1.90;;;;;;;3.63;100.00;97992.31;5122382;28;20425;-80
2023/12/03 10:34:13;;;;;;;1.80;1.70;;;;;;;3.76;100.00;97993.19;5120301;28;20407;-79
2023/12/03 10:36:42;;;;;;;1.60;1.50;;;;;;;3.95;100.00;97991.72;5119386;28;20397;-80
2023/12/03 10:39:08;;;;;;;1.77;1.67;;;;;;;4.03;100.00;97986.31;5118335;28;20419;-80
2023/12/03 10:41:37;;;;;;;1.83;1.70;;;;;;;4.13;100.00;97988.56;5119789;28;20401;-80
2023/12/03 10:44:04;;;;;;;2.75;2.45;;;;;;;4.11;100.00;97975.66;5120840;28;20525;-81
2023/12/03 10:46:30;;;;;;;4.07;3.08;;;;;;;3.92;100.00;97971.13;5121136;28;20490;-81
2023/12/03 10:48:57;;;;;;;3.40;3.10;;;;;;;3.76;100.00;97977.50;5120584;28;20534;-81
2023/12/03 10:51:25;;;;;;;4.63;3.58;;;;;;;3.57;100.00;97972.97;5127400;28;20404;-80
2023/12/03 10:53:52;;;;;;;4.35;3.40;;;;;;;3.50;100.00;97967.69;5125809;28;20384;-81
2023/12/03 10:56:19;;;;;;;3.80;3.20;;;;;;;3.54;100.00;97973.34;5119401;28;20864;-81
2023/12/03 10:58:48;;;;;;;3.20;2.72;;;;;;;3.58;100.00;97974.59;5119173;28;20399;-80
2023/12/03 11:01:18;;;;;;;5.25;4.22;;;;;;;3.57;100.00;97974.78;5118254;28;20410;-81
2023/12/03 11:03:54;;;;;;;7.53;5.53;;;;;;;3.40;100.00;97975.06;5117267;28;20400;-80
2023/12/03 11:06:23;;;;;;;6.95;5.10;;;;;;;3.19;100.00;97982.16;5118319;28;20422;-80
2023/12/03 11:08:51;;;;;;;6.03;4.72;;;;;;;3.15;100.00;97984.34;5118199;28;20380;-81
2023/12/03 11:11:20;;;;;;;7.28;5.20;;;;;;;3.11;100.00;97978.66;5118116;28;20465;-81
2023/12/03 11:13:50;;;;;;;4.85;3.80;;;;;;;3.20;100.00;97984.56;5117297;28;20410;-80
2023/12/03 11:16:18;;;;;;;5.25;4.28;;;;;;;3.34;100.00;97986.28;5117966;28;20435;-80
2023/12/03 11:18:49;;;;;;;5.20;4.30;;;;;;;3.35;100.00;97982.69;5117536;28;20407;-80